createdAt,value
2023-05-12T00:00:02.861Z,12.30
2023-05-12T00:01:02.459Z,12.70
2023-05-12T00:02:03.103Z,12.40
2023-05-12T00:03:02.535Z,10.80
2023-05-12T00:04:02.537Z,11.20
2023-05-12T00:05:02.616Z,10.10
2023-05-12T00:06:02.426Z,9.40
2023-05-12T00:07:02.393Z,10.90
2023-05-12T00:08:02.341Z,11.90
2023-05-12T00:09:02.375Z,10.50
2023-05-12T00:10:02.326Z,11.30
2023-05-12T00:11:02.368Z,10.80
2023-05-12T00:12:02.371Z,11.30
2023-05-12T00:13:02.330Z,11.70
2023-05-12T00:14:02.277Z,11.60
2023-05-12T00:15:02.288Z,11.40
2023-05-12T00:16:02.380Z,14.50
2023-05-12T00:17:02.347Z,11.50
2023-05-12T00:18:02.343Z,9.30
2023-05-12T00:19:03.914Z,9.70
2023-05-12T00:20:02.427Z,9.90
2023-05-12T00:21:02.218Z,8.10
2023-05-12T00:22:02.181Z,10.30
2023-05-12T00:23:02.274Z,8.90
2023-05-12T00:24:02.162Z,12.20
2023-05-12T00:25:02.205Z,10.40
2023-05-12T00:26:11.154Z,9.40
2023-05-12T00:27:02.158Z,10.00
2023-05-12T00:28:02.130Z,11.30
2023-05-12T00:29:02.211Z,11.20
2023-05-12T00:30:02.132Z,12.70
2023-05-12T00:31:02.140Z,9.70
2023-05-12T00:32:02.147Z,11.00
2023-05-12T00:33:02.154Z,11.10
2023-05-12T00:34:02.089Z,9.30
2023-05-12T00:35:02.117Z,8.10
2023-05-12T00:36:02.039Z,8.90
2023-05-12T00:37:02.088Z,9.90
2023-05-12T00:38:02.017Z,9.10
2023-05-12T00:39:02.072Z,8.60
2023-05-12T00:40:02.040Z,8.60
2023-05-12T00:41:02.166Z,5.80
2023-05-12T00:42:02.273Z,6.80
2023-05-12T00:43:02.926Z,7.30
2023-05-12T00:44:02.015Z,6.90
2023-05-12T00:45:02.085Z,8.30
2023-05-12T00:46:02.134Z,6.70
2023-05-12T00:47:02.073Z,8.00
2023-05-12T00:48:02.045Z,6.50
2023-05-12T00:49:01.964Z,6.50
2023-05-12T00:50:02.170Z,6.60
2023-05-12T00:51:02.147Z,8.30
2023-05-12T00:52:02.164Z,5.90
2023-05-12T00:53:02.116Z,7.30
2023-05-12T00:54:02.205Z,6.00
2023-05-12T00:55:01.969Z,7.80
2023-05-12T00:56:01.864Z,6.70
2023-05-12T00:57:01.845Z,7.00
2023-05-12T00:58:01.850Z,7.00
2023-05-12T00:59:01.835Z,7.40
2023-05-12T01:00:02.418Z,8.20
2023-05-12T01:01:02.301Z,8.70
2023-05-12T01:02:01.886Z,8.90
2023-05-12T01:03:01.888Z,7.70
2023-05-12T01:04:01.732Z,8.60
2023-05-12T01:05:01.820Z,6.30
2023-05-12T01:06:01.952Z,7.50
2023-05-12T01:07:01.778Z,7.90
2023-05-12T01:08:01.697Z,7.60
2023-05-12T01:09:01.717Z,7.90
2023-05-12T01:10:01.754Z,9.00
2023-05-12T01:11:01.694Z,8.30
2023-05-12T01:12:01.739Z,6.20
2023-05-12T01:13:01.655Z,7.90
2023-05-12T01:14:01.649Z,9.20
2023-05-12T01:15:01.655Z,10.10
2023-05-12T01:16:01.594Z,7.10
2023-05-12T01:17:01.781Z,7.50
2023-05-12T01:18:01.672Z,8.50
2023-05-12T01:19:01.828Z,6.90
2023-05-12T01:20:01.689Z,7.40
2023-05-12T01:21:01.622Z,8.10
2023-05-12T01:22:01.844Z,7.90
2023-05-12T01:23:01.576Z,8.70
2023-05-12T01:24:01.518Z,8.30
2023-05-12T01:25:01.697Z,6.90
2023-05-12T01:26:01.533Z,6.50
2023-05-12T01:27:01.532Z,8.40
2023-05-12T01:28:01.546Z,6.10
2023-05-12T01:29:02.907Z,7.50
2023-05-12T01:30:02.457Z,8.70
2023-05-12T01:31:01.522Z,7.00
2023-05-12T01:32:01.432Z,5.90
2023-05-12T01:33:01.660Z,7.30
2023-05-12T01:34:01.453Z,11.40
2023-05-12T01:35:01.455Z,8.70
2023-05-12T01:36:01.397Z,8.20
2023-05-12T01:37:01.382Z,11.00
2023-05-12T01:38:01.460Z,7.30
2023-05-12T01:39:01.404Z,8.60
2023-05-12T01:40:01.387Z,8.50
2023-05-12T01:41:01.446Z,7.20
2023-05-12T01:42:01.345Z,6.40
2023-05-12T01:43:01.371Z,6.50
2023-05-12T01:44:01.415Z,7.60
2023-05-12T01:45:01.321Z,11.90
2023-05-12T01:46:01.352Z,7.40
2023-05-12T01:47:01.379Z,7.20
2023-05-12T01:48:01.310Z,6.40
2023-05-12T01:49:01.279Z,7.80
2023-05-12T01:50:01.293Z,5.70
2023-05-12T01:51:01.235Z,12.70
2023-05-12T01:52:01.286Z,7.30
2023-05-12T01:53:01.214Z,7.20
2023-05-12T01:54:01.202Z,6.50
2023-05-12T01:55:02.670Z,6.00
2023-05-12T01:56:01.145Z,7.70
2023-05-12T01:57:01.167Z,4.90
2023-05-12T01:58:01.146Z,5.80
2023-05-12T01:59:01.207Z,6.40
2023-05-12T02:00:01.204Z,5.80
2023-05-12T02:01:01.120Z,5.40
2023-05-12T02:02:01.375Z,5.40
2023-05-12T02:03:01.382Z,6.30
2023-05-12T02:04:01.102Z,6.10
2023-05-12T02:05:01.131Z,11.50
2023-05-12T02:06:01.113Z,4.50
2023-05-12T02:07:01.384Z,5.50
2023-05-12T02:08:01.123Z,4.70
2023-05-12T02:09:01.338Z,5.60
2023-05-12T02:10:01.041Z,4.90
2023-05-12T02:11:01.070Z,3.60
2023-05-12T02:12:01.039Z,4.40
2023-05-12T02:13:01.177Z,7.80
2023-05-12T02:14:00.956Z,4.60
2023-05-12T02:15:00.972Z,4.50
2023-05-12T02:16:01.088Z,3.90
2023-05-12T02:17:00.970Z,4.60
2023-05-12T02:18:00.950Z,4.70
2023-05-12T02:19:00.982Z,5.00
2023-05-12T02:20:00.909Z,4.20
2023-05-12T02:21:00.904Z,4.10
2023-05-12T02:22:00.904Z,6.10
2023-05-12T02:23:00.943Z,5.90
2023-05-12T02:24:00.864Z,5.00
2023-05-12T02:25:00.846Z,4.00
2023-05-12T02:26:00.869Z,3.40
2023-05-12T02:27:00.988Z,3.40
2023-05-12T02:28:00.803Z,4.90
2023-05-12T02:29:00.912Z,3.80
2023-05-12T02:30:00.781Z,4.00
2023-05-12T02:31:00.817Z,5.90
2023-05-12T02:32:00.830Z,6.00
2023-05-12T02:33:00.788Z,3.60
2023-05-12T02:34:00.721Z,4.60
2023-05-12T02:35:00.756Z,7.40
2023-05-12T02:36:00.804Z,4.30
2023-05-12T02:37:00.836Z,5.20
2023-05-12T02:38:00.678Z,5.30
2023-05-12T02:39:00.708Z,3.70
2023-05-12T02:40:00.662Z,7.10
2023-05-12T02:41:00.762Z,6.60
2023-05-12T02:42:01.073Z,6.30
2023-05-12T02:43:00.666Z,4.00
2023-05-12T02:44:00.630Z,5.30
2023-05-12T02:45:00.629Z,5.60
2023-05-12T02:46:00.719Z,6.00
2023-05-12T02:47:00.631Z,2.90
2023-05-12T02:48:00.576Z,5.00
2023-05-12T02:49:01.193Z,3.10
2023-05-12T02:50:00.552Z,5.10
2023-05-12T02:51:00.566Z,4.30
2023-05-12T02:52:00.538Z,3.00
2023-05-12T02:53:00.528Z,2.70
2023-05-12T02:54:00.516Z,4.70
2023-05-12T02:55:00.508Z,2.50
2023-05-12T02:56:00.501Z,3.60
2023-05-12T02:57:00.489Z,3.30
2023-05-12T02:58:00.475Z,2.30
2023-05-12T02:59:00.467Z,4.30
2023-05-12T03:00:00.965Z,3.10
2023-05-12T03:01:10.196Z,4.40
2023-05-12T03:02:02.253Z,8.20
2023-05-12T03:03:01.136Z,2.20
2023-05-12T03:04:00.708Z,3.30
2023-05-12T03:05:00.407Z,3.30
2023-05-12T03:06:00.998Z,3.20
2023-05-12T03:07:01.107Z,2.80
2023-05-12T03:08:00.332Z,3.00
2023-05-12T03:09:00.389Z,3.60
2023-05-12T03:10:00.311Z,2.90
2023-05-12T03:11:00.532Z,3.70
2023-05-12T03:12:00.290Z,5.50
2023-05-12T03:13:00.308Z,2.70
2023-05-12T03:14:00.292Z,3.30
2023-05-12T03:15:00.269Z,3.20
2023-05-12T03:16:00.328Z,2.70
2023-05-12T03:17:00.255Z,4.70
2023-05-12T03:18:00.337Z,4.90
2023-05-12T03:19:00.310Z,2.40
2023-05-12T03:20:00.247Z,3.90
2023-05-12T03:21:00.185Z,2.80
2023-05-12T03:22:00.221Z,3.70
2023-05-12T03:23:00.427Z,3.00
2023-05-12T03:24:00.440Z,2.60
2023-05-12T03:25:00.189Z,2.70
2023-05-12T03:26:00.198Z,4.30
2023-05-12T03:27:00.128Z,4.00
2023-05-12T03:28:00.122Z,3.30
2023-05-12T03:29:00.147Z,4.40
2023-05-12T03:30:00.171Z,4.00
2023-05-12T03:31:00.158Z,5.30
2023-05-12T03:32:00.100Z,4.20
2023-05-12T03:33:00.244Z,3.30
2023-05-12T03:34:00.124Z,5.70
2023-05-12T03:35:00.009Z,3.20
2023-05-12T03:36:00.037Z,5.90
2023-05-12T03:37:00.088Z,3.20
2023-05-12T03:37:59.997Z,3.70
2023-05-12T03:38:59.969Z,5.90
2023-05-12T03:40:00.055Z,4.20
2023-05-12T03:40:59.972Z,5.00
2023-05-12T03:41:59.967Z,4.50
2023-05-12T03:42:59.945Z,4.00
2023-05-12T03:44:00.020Z,4.10
2023-05-12T03:45:00.044Z,5.40
2023-05-12T03:46:00.042Z,3.20
2023-05-12T03:46:59.938Z,2.90
2023-05-12T03:47:59.958Z,5.10
2023-05-12T03:48:59.851Z,2.90
2023-05-12T03:49:59.889Z,4.20
2023-05-12T03:50:59.834Z,4.30
2023-05-12T03:51:59.915Z,5.90
2023-05-12T03:52:59.862Z,6.90
2023-05-12T03:53:59.819Z,4.90
2023-05-12T03:54:59.804Z,6.10
2023-05-12T03:55:59.803Z,4.90
2023-05-12T03:57:00.555Z,3.80
2023-05-12T03:57:59.798Z,5.00
2023-05-12T03:58:59.758Z,6.00
2023-05-12T03:59:59.781Z,4.10
2023-05-12T04:00:59.740Z,5.30
2023-05-12T04:01:59.779Z,5.20
2023-05-12T04:02:59.929Z,5.50
2023-05-12T04:03:59.999Z,5.20
2023-05-12T04:04:59.699Z,5.00
2023-05-12T04:05:59.708Z,5.80
2023-05-12T04:06:59.654Z,5.90
2023-05-12T04:07:59.659Z,3.50
2023-05-12T04:08:59.632Z,4.50
2023-05-12T04:09:59.668Z,4.40
2023-05-12T04:10:59.620Z,4.80
2023-05-12T04:11:59.606Z,4.20
2023-05-12T04:12:59.626Z,5.20
2023-05-12T04:13:59.615Z,4.50
2023-05-12T04:14:59.616Z,4.60
2023-05-12T04:15:59.631Z,4.60
2023-05-12T04:16:59.577Z,4.60
2023-05-12T04:17:59.660Z,4.90
2023-05-12T04:18:59.599Z,4.80
2023-05-12T04:19:59.524Z,4.70
2023-05-12T04:20:59.474Z,5.90
2023-05-12T04:21:59.630Z,5.00
2023-05-12T04:22:59.470Z,8.40
2023-05-12T04:23:59.858Z,5.40
2023-05-12T04:24:59.625Z,5.20
2023-05-12T04:25:59.635Z,6.20
2023-05-12T04:26:59.680Z,5.70
2023-05-12T04:27:59.429Z,5.70
2023-05-12T04:28:59.405Z,5.70
2023-05-12T04:29:59.410Z,4.40
2023-05-12T04:30:59.375Z,4.10
2023-05-12T04:31:59.409Z,5.10
2023-05-12T04:32:59.398Z,4.90
2023-05-12T04:33:59.349Z,6.70
2023-05-12T04:34:59.346Z,4.60
2023-05-12T04:35:59.360Z,6.10
2023-05-12T04:36:59.312Z,6.10
2023-05-12T04:37:59.344Z,4.60
2023-05-12T04:38:59.276Z,5.70
2023-05-12T04:39:59.286Z,4.50
2023-05-12T04:40:59.277Z,5.10
2023-05-12T04:41:59.378Z,5.50
2023-05-12T04:42:59.350Z,6.80
2023-05-12T04:44:00.791Z,5.50
2023-05-12T04:44:59.352Z,7.30
2023-05-12T04:46:00.370Z,7.20
2023-05-12T04:46:59.364Z,5.50
2023-05-12T04:47:59.315Z,4.10
2023-05-12T04:48:59.214Z,5.80
2023-05-12T04:49:59.388Z,5.10
2023-05-12T04:50:59.375Z,5.00
2023-05-12T04:51:59.287Z,3.90
2023-05-12T04:52:59.414Z,6.10
2023-05-12T04:53:59.361Z,3.90
2023-05-12T04:54:59.090Z,5.20
2023-05-12T04:55:59.094Z,6.40
2023-05-12T04:56:59.109Z,4.50
2023-05-12T04:57:59.140Z,4.70
2023-05-12T04:58:59.087Z,4.30
2023-05-12T04:59:59.088Z,4.70
2023-05-12T05:00:59.062Z,6.20
2023-05-12T05:01:59.053Z,9.10
2023-05-12T05:02:59.056Z,6.60
2023-05-12T05:03:59.160Z,4.20
2023-05-12T05:04:58.971Z,4.70
2023-05-12T05:05:59.036Z,3.40
2023-05-12T05:06:58.983Z,3.80
2023-05-12T05:07:58.974Z,5.10
2023-05-12T05:08:58.981Z,7.50
2023-05-12T05:09:58.962Z,4.80
2023-05-12T05:10:58.938Z,5.30
2023-05-12T05:11:58.932Z,5.60
2023-05-12T05:12:58.898Z,5.10
2023-05-12T05:13:58.919Z,5.70
2023-05-12T05:14:58.903Z,4.50
2023-05-12T05:15:58.947Z,3.70
2023-05-12T05:16:58.832Z,4.90
2023-05-12T05:18:00.040Z,5.70
2023-05-12T05:18:58.855Z,4.90
2023-05-12T05:19:59.641Z,4.30
2023-05-12T05:20:59.350Z,4.70
2023-05-12T05:21:58.835Z,3.60
2023-05-12T05:22:58.758Z,4.40
2023-05-12T05:23:58.768Z,4.80
2023-05-12T05:24:58.812Z,3.30
2023-05-12T05:25:58.782Z,5.50
2023-05-12T05:26:58.903Z,6.00
2023-05-12T05:27:58.715Z,5.20
2023-05-12T05:28:58.725Z,3.80
2023-05-12T05:29:58.722Z,6.30
2023-05-12T05:30:58.760Z,4.10
2023-05-12T05:31:58.728Z,4.10
2023-05-12T05:32:58.721Z,5.40
2023-05-12T05:33:58.703Z,4.10
2023-05-12T05:34:58.666Z,5.20
2023-05-12T05:35:58.700Z,3.80
2023-05-12T05:36:58.724Z,3.80
2023-05-12T05:37:58.690Z,5.20
2023-05-12T05:38:58.582Z,5.60
2023-05-12T05:39:58.597Z,4.50
2023-05-12T05:40:58.843Z,3.80
2023-05-12T05:41:58.604Z,4.60
2023-05-12T05:42:58.617Z,3.30
2023-05-12T05:43:58.981Z,3.90
2023-05-12T05:44:58.512Z,4.20
2023-05-12T05:45:59.039Z,3.30
2023-05-12T05:46:58.582Z,3.40
2023-05-12T05:47:58.608Z,4.50
2023-05-12T05:48:58.563Z,4.20
2023-05-12T05:49:58.476Z,2.80
2023-05-12T05:50:58.494Z,3.10
2023-05-12T05:51:58.496Z,3.40
2023-05-12T05:52:58.573Z,3.10
2023-05-12T05:53:58.506Z,3.90
2023-05-12T05:54:58.427Z,4.30
2023-05-12T05:55:58.435Z,4.50
2023-05-12T05:56:58.412Z,4.60
2023-05-12T05:57:58.476Z,6.40
2023-05-12T05:58:59.418Z,8.20
2023-05-12T05:59:58.394Z,2.90
2023-05-12T06:00:58.376Z,3.90
2023-05-12T06:01:58.424Z,4.00
2023-05-12T06:02:58.470Z,4.20
2023-05-12T06:03:58.482Z,2.60
2023-05-12T06:04:58.325Z,3.90
2023-05-12T06:05:58.318Z,4.40
2023-05-12T06:06:58.375Z,3.70
2023-05-12T06:07:58.314Z,3.30
2023-05-12T06:08:58.284Z,3.40
2023-05-12T06:09:58.273Z,2.40
2023-05-12T06:10:58.231Z,3.30
2023-05-12T06:11:58.287Z,3.90
2023-05-12T06:12:58.213Z,3.90
2023-05-12T06:13:58.243Z,4.50
2023-05-12T06:14:58.202Z,2.50
2023-05-12T06:15:58.216Z,3.00
2023-05-12T06:16:58.319Z,4.70
2023-05-12T06:17:58.215Z,3.20
2023-05-12T06:18:58.214Z,6.00
2023-05-12T06:19:58.199Z,3.60
2023-05-12T06:20:58.172Z,4.70
2023-05-12T06:21:58.138Z,3.30
2023-05-12T06:22:58.167Z,6.00
2023-05-12T06:23:58.127Z,3.10
2023-05-12T06:24:58.100Z,2.50
2023-05-12T06:25:58.100Z,2.70
2023-05-12T06:26:58.370Z,4.10
2023-05-12T06:27:58.273Z,4.40
2023-05-12T06:28:58.027Z,4.70
2023-05-12T06:29:58.061Z,5.40
2023-05-12T06:30:58.057Z,3.00
2023-05-12T06:31:58.181Z,4.30
2023-05-12T06:32:57.987Z,3.90
2023-05-12T06:33:58.389Z,2.70
2023-05-12T06:34:57.979Z,2.10
2023-05-12T06:35:57.978Z,3.70
2023-05-12T06:36:58.030Z,2.40
2023-05-12T06:37:57.961Z,3.10
2023-05-12T06:38:57.954Z,4.20
2023-05-12T06:39:57.957Z,2.20
2023-05-12T06:40:58.244Z,2.80
2023-05-12T06:41:57.951Z,3.90
2023-05-12T06:42:57.902Z,2.80
2023-05-12T06:43:57.892Z,2.30
2023-05-12T06:44:57.845Z,2.50
2023-05-12T06:45:57.899Z,2.80
2023-05-12T06:46:57.837Z,2.10
2023-05-12T06:47:58.356Z,2.80
2023-05-12T06:48:58.087Z,4.40
2023-05-12T06:49:57.837Z,3.00
2023-05-12T06:50:57.782Z,2.50
2023-05-12T06:51:58.390Z,3.30
2023-05-12T06:52:57.799Z,2.30
2023-05-12T06:53:57.872Z,2.60
2023-05-12T06:54:57.839Z,3.70
2023-05-12T06:55:57.775Z,2.50
2023-05-12T06:56:57.809Z,4.50
2023-05-12T06:57:57.721Z,2.50
2023-05-12T06:58:57.739Z,2.90
2023-05-12T06:59:57.765Z,2.20
2023-05-12T07:00:57.694Z,3.40
2023-05-12T07:01:57.814Z,2.60
2023-05-12T07:02:57.716Z,2.20
2023-05-12T07:03:57.710Z,1.50
2023-05-12T07:04:57.637Z,2.20
2023-05-12T07:05:57.696Z,3.70
2023-05-12T07:06:57.607Z,6.50
2023-05-12T07:07:58.091Z,4.20
2023-05-12T07:08:57.983Z,3.40
2023-05-12T07:09:57.760Z,3.60
2023-05-12T07:10:57.598Z,3.80
2023-05-12T07:11:57.587Z,1.90
2023-05-12T07:12:57.524Z,1.70
2023-05-12T07:13:57.550Z,2.80
2023-05-12T07:14:57.540Z,2.80
2023-05-12T07:15:57.561Z,4.20
2023-05-12T07:16:57.487Z,3.10
2023-05-12T07:17:57.565Z,5.60
2023-05-12T07:18:57.473Z,2.50
2023-05-12T07:19:57.468Z,4.10
2023-05-12T07:20:57.420Z,2.30
2023-05-12T07:21:57.489Z,4.40
2023-05-12T07:22:57.395Z,3.80
2023-05-12T07:23:57.430Z,1.80
2023-05-12T07:24:57.897Z,2.80
2023-05-12T07:25:57.436Z,2.50
2023-05-12T07:26:57.352Z,3.10
2023-05-12T07:27:57.407Z,5.60
2023-05-12T07:28:57.438Z,2.60
2023-05-12T07:29:57.408Z,3.10
2023-05-12T07:30:57.376Z,1.70
2023-05-12T07:31:57.323Z,2.40
2023-05-12T07:32:57.368Z,2.10
2023-05-12T07:33:57.712Z,1.90
2023-05-12T07:34:57.307Z,4.70
2023-05-12T07:35:57.265Z,2.70
2023-05-12T07:36:57.283Z,2.10
2023-05-12T07:37:57.248Z,2.40
2023-05-12T07:38:57.246Z,3.20
2023-05-12T07:39:57.235Z,3.30
2023-05-12T07:40:57.265Z,3.30
2023-05-12T07:41:57.331Z,2.00
2023-05-12T07:42:57.225Z,2.30
2023-05-12T07:43:57.197Z,1.70
2023-05-12T07:44:57.182Z,3.90
2023-05-12T07:45:57.138Z,3.80
2023-05-12T07:46:57.372Z,2.40
2023-05-12T07:47:57.178Z,3.40
2023-05-12T07:48:57.519Z,3.30
2023-05-12T07:49:57.253Z,2.20
2023-05-12T07:50:57.344Z,3.40
2023-05-12T07:51:57.094Z,3.60
2023-05-12T07:52:57.116Z,3.60
2023-05-12T07:53:57.137Z,3.10
2023-05-12T07:54:57.120Z,2.40
2023-05-12T07:55:57.028Z,2.30
2023-05-12T07:56:57.066Z,3.10
2023-05-12T07:57:57.009Z,2.60
2023-05-12T07:58:57.077Z,2.60
2023-05-12T07:59:57.030Z,3.20
2023-05-12T08:00:57.805Z,3.00
2023-05-12T08:01:57.003Z,2.60
2023-05-12T08:02:57.209Z,2.60
2023-05-12T08:03:57.093Z,3.00
2023-05-12T08:04:57.003Z,2.70
2023-05-12T08:05:56.981Z,2.60
2023-05-12T08:06:57.642Z,2.20
2023-05-12T08:07:56.932Z,2.90
2023-05-12T08:08:57.399Z,2.60
2023-05-12T08:09:57.134Z,2.30
2023-05-12T08:10:56.945Z,2.60
2023-05-12T08:11:56.856Z,3.70
2023-05-12T08:12:56.888Z,3.50
2023-05-12T08:13:56.987Z,3.10
2023-05-12T08:14:56.865Z,6.30
2023-05-12T08:15:56.819Z,3.00
2023-05-12T08:16:57.007Z,2.00
2023-05-12T08:17:56.880Z,1.90
2023-05-12T08:18:56.821Z,3.40
2023-05-12T08:19:56.870Z,5.50
2023-05-12T08:20:56.854Z,2.30
2023-05-12T08:21:56.806Z,2.70
2023-05-12T08:22:56.743Z,4.10
2023-05-12T08:23:56.771Z,3.10
2023-05-12T08:24:56.748Z,3.40
2023-05-12T08:25:56.759Z,2.10
2023-05-12T08:26:56.746Z,3.50
2023-05-12T08:27:56.717Z,3.40
2023-05-12T08:28:56.915Z,2.10
2023-05-12T08:29:56.810Z,3.00
2023-05-12T08:30:56.729Z,2.50
2023-05-12T08:31:57.738Z,2.30
2023-05-12T08:32:56.696Z,2.30
2023-05-12T08:34:08.937Z,3.10
2023-05-12T08:34:57.650Z,3.50
2023-05-12T08:35:56.606Z,3.20
2023-05-12T08:36:56.587Z,2.00
2023-05-12T08:37:56.573Z,1.70
2023-05-12T08:38:56.655Z,3.30
2023-05-12T08:39:56.518Z,2.60
2023-05-12T08:40:56.684Z,3.00
2023-05-12T08:41:56.520Z,3.70
2023-05-12T08:42:56.530Z,3.20
2023-05-12T08:43:56.642Z,1.70
2023-05-12T08:44:56.883Z,1.90
2023-05-12T08:45:56.504Z,2.60
2023-05-12T08:46:56.590Z,3.10
2023-05-12T08:47:56.538Z,4.20
2023-05-12T08:48:56.732Z,2.60
2023-05-12T08:49:56.450Z,2.20
2023-05-12T08:50:56.687Z,3.70
2023-05-12T08:51:58.072Z,1.90
2023-05-12T08:52:56.808Z,3.50
2023-05-12T08:53:56.382Z,4.20
2023-05-12T08:54:56.939Z,3.60
2023-05-12T08:57:10.139Z,4.30
2023-05-12T08:57:56.523Z,1.60
2023-05-12T08:58:57.897Z,2.80
2023-05-12T08:59:56.313Z,2.00
2023-05-12T09:00:57.475Z,2.60
2023-05-12T09:01:56.401Z,2.00
2023-05-12T09:02:56.382Z,2.00
2023-05-12T09:03:56.300Z,2.90
2023-05-12T09:04:56.299Z,3.80
2023-05-12T09:05:56.299Z,3.90
2023-05-12T09:06:56.546Z,4.80
2023-05-12T09:07:56.229Z,2.20
2023-05-12T09:08:56.393Z,3.70
2023-05-12T09:09:56.243Z,2.20
2023-05-12T09:10:56.457Z,2.20
2023-05-12T09:11:56.224Z,2.70
2023-05-12T09:12:56.203Z,3.70
2023-05-12T09:13:56.619Z,2.80
2023-05-12T09:14:56.240Z,2.10
2023-05-12T09:15:56.238Z,8.20
2023-05-12T09:16:56.199Z,2.40
2023-05-12T09:17:56.110Z,3.00
2023-05-12T09:18:56.178Z,2.60
2023-05-12T09:19:56.373Z,2.40
2023-05-12T09:20:56.091Z,2.10
2023-05-12T09:21:56.658Z,5.80
2023-05-12T09:22:56.408Z,4.20
2023-05-12T09:23:56.014Z,2.90
2023-05-12T09:24:56.047Z,2.20
2023-05-12T09:25:56.078Z,6.00
2023-05-12T09:26:56.208Z,4.50
2023-05-12T09:27:56.002Z,2.60
2023-05-12T09:28:56.391Z,1.80
2023-05-12T09:29:59.684Z,2.80
2023-05-12T09:30:55.970Z,2.30
2023-05-12T09:31:56.289Z,3.70
2023-05-12T09:32:56.015Z,2.90
2023-05-12T09:33:55.999Z,4.10
2023-05-12T09:34:55.916Z,3.10
2023-05-12T09:35:55.948Z,2.10
2023-05-12T09:36:56.521Z,3.10
2023-05-12T09:37:56.126Z,3.70
2023-05-12T09:38:56.567Z,3.70
2023-05-12T09:39:55.887Z,5.60
2023-05-12T09:40:55.843Z,4.40
2023-05-12T09:41:55.980Z,3.20
2023-05-12T09:42:55.922Z,2.10
2023-05-12T09:43:55.851Z,6.70
2023-05-12T09:44:56.352Z,3.40
2023-05-12T09:45:56.219Z,4.20
2023-05-12T09:46:55.796Z,3.50
2023-05-12T09:47:55.834Z,7.00
2023-05-12T09:48:55.825Z,2.30
2023-05-12T09:49:55.788Z,3.80
2023-05-12T09:50:55.759Z,3.60
2023-05-12T09:51:56.160Z,4.50
2023-05-12T09:52:58.856Z,2.60
2023-05-12T09:53:56.628Z,3.40
2023-05-12T09:54:56.149Z,2.70
2023-05-12T09:55:55.703Z,4.30
2023-05-12T09:56:55.980Z,3.60
2023-05-12T09:57:55.665Z,5.40
2023-05-12T09:58:55.769Z,4.20
2023-05-12T09:59:55.810Z,4.10
2023-05-12T10:01:13.555Z,8.50
2023-05-12T10:01:56.704Z,2.90
2023-05-12T10:02:55.679Z,3.60
2023-05-12T10:03:55.665Z,4.30
2023-05-12T10:04:55.759Z,3.50
2023-05-12T10:05:55.760Z,4.60
2023-05-12T10:06:55.569Z,2.70
2023-05-12T10:07:55.537Z,2.20
2023-05-12T10:08:55.564Z,3.60
2023-05-12T10:09:55.512Z,3.70
2023-05-12T10:10:55.611Z,3.10
2023-05-12T10:11:55.483Z,3.90
2023-05-12T10:12:55.638Z,3.00
2023-05-12T10:13:55.464Z,4.60
2023-05-12T10:14:55.560Z,3.00
2023-05-12T10:15:55.455Z,3.90
2023-05-12T10:16:55.456Z,2.10
2023-05-12T10:17:55.510Z,4.30
2023-05-12T10:18:55.559Z,4.00
2023-05-12T10:19:55.387Z,5.10
2023-05-12T10:20:55.397Z,3.20
2023-05-12T10:21:55.419Z,3.70
2023-05-12T10:22:55.368Z,3.40
2023-05-12T10:23:55.359Z,3.40
2023-05-12T10:24:55.344Z,3.70
2023-05-12T10:25:55.607Z,3.90
2023-05-12T10:26:55.335Z,3.70
2023-05-12T10:27:55.341Z,2.40
2023-05-12T10:28:55.548Z,4.30
2023-05-12T10:29:55.287Z,3.60
2023-05-12T10:30:55.305Z,3.90
2023-05-12T10:31:55.250Z,3.20
2023-05-12T10:32:55.305Z,2.30
2023-05-12T10:33:55.413Z,3.70
2023-05-12T10:34:55.256Z,6.50
2023-05-12T10:35:55.287Z,5.60
2023-05-12T10:36:55.459Z,4.70
2023-05-12T10:37:55.239Z,3.80
2023-05-12T10:38:55.209Z,4.10
2023-05-12T10:39:55.225Z,4.10
2023-05-12T10:40:55.171Z,2.50
2023-05-12T10:41:55.167Z,5.40
2023-05-12T10:42:55.176Z,3.20
2023-05-12T10:43:55.107Z,4.50
2023-05-12T10:44:55.142Z,4.50
2023-05-12T10:45:55.124Z,2.30
2023-05-12T10:46:55.128Z,6.10
2023-05-12T10:47:55.633Z,4.00
2023-05-12T10:48:55.093Z,4.10
2023-05-12T10:49:55.137Z,3.30
2023-05-12T10:50:55.078Z,4.70
2023-05-12T10:51:55.024Z,2.80
2023-05-12T10:52:55.076Z,3.40
2023-05-12T10:53:55.135Z,5.70
2023-05-12T10:54:55.103Z,6.50
2023-05-12T10:55:55.173Z,4.90
2023-05-12T10:56:55.185Z,3.20
2023-05-12T10:57:55.286Z,2.40
2023-05-12T10:58:55.245Z,3.50
2023-05-12T10:59:55.286Z,3.90
2023-05-12T11:00:55.833Z,3.10
2023-05-12T11:01:55.326Z,4.30
2023-05-12T11:02:58.083Z,3.30
2023-05-12T11:03:56.031Z,3.90
2023-05-12T11:04:55.344Z,2.50
2023-05-12T11:05:55.705Z,6.00
2023-05-12T11:06:55.975Z,4.00
2023-05-12T11:07:55.031Z,4.20
2023-05-12T11:08:55.141Z,3.10
2023-05-12T11:09:59.109Z,5.10
2023-05-12T11:10:55.912Z,3.60
2023-05-12T11:11:54.872Z,5.40
2023-05-12T11:12:54.848Z,3.70
2023-05-12T11:13:55.016Z,3.40
2023-05-12T11:14:54.965Z,5.20
2023-05-12T11:15:54.817Z,4.60
2023-05-12T11:16:54.834Z,3.80
2023-05-12T11:17:54.777Z,3.30
2023-05-12T11:18:54.812Z,2.50
2023-05-12T11:19:54.736Z,2.50
2023-05-12T11:20:54.749Z,5.20
2023-05-12T11:21:54.708Z,4.40
2023-05-12T11:22:54.713Z,4.70
2023-05-12T11:23:54.662Z,3.90
2023-05-12T11:24:54.781Z,2.80
2023-05-12T11:25:54.711Z,3.90
2023-05-12T11:26:54.716Z,3.20
2023-05-12T11:27:54.692Z,2.50
2023-05-12T11:28:54.631Z,3.00
2023-05-12T11:29:54.679Z,2.50
2023-05-12T11:30:55.511Z,6.30
2023-05-12T11:31:58.494Z,4.30
2023-05-12T11:32:54.635Z,3.70
2023-05-12T11:34:01.443Z,3.50
2023-05-12T11:34:55.638Z,2.50
2023-05-12T11:35:54.524Z,4.90
2023-05-12T11:36:54.573Z,3.00
2023-05-12T11:37:54.525Z,4.10
2023-05-12T11:38:54.573Z,3.30
2023-05-12T11:39:54.498Z,6.40
2023-05-12T11:40:54.510Z,2.40
2023-05-12T11:42:02.109Z,3.20
2023-05-12T11:42:55.898Z,3.10
2023-05-12T11:43:54.447Z,4.00
2023-05-12T11:44:54.470Z,3.90
2023-05-12T11:45:54.466Z,2.50
2023-05-12T11:46:54.498Z,4.50
2023-05-12T11:47:54.630Z,4.40
2023-05-12T11:48:54.380Z,1.60
2023-05-12T11:49:54.416Z,2.50
2023-05-12T11:50:54.424Z,3.00
2023-05-12T11:51:54.366Z,3.50
2023-05-12T11:52:54.324Z,5.10
2023-05-12T11:53:54.432Z,4.30
2023-05-12T11:54:54.523Z,4.60
2023-05-12T11:55:54.355Z,2.30
2023-05-12T11:56:54.314Z,4.60
2023-05-12T11:57:54.308Z,6.20
2023-05-12T11:58:54.296Z,6.60
2023-05-12T11:59:54.280Z,2.40
2023-05-12T12:00:54.257Z,2.50
2023-05-12T12:01:54.308Z,4.50
2023-05-12T12:02:54.393Z,2.40
2023-05-12T12:03:54.323Z,3.70
2023-05-12T12:04:54.223Z,5.40
2023-05-12T12:05:54.269Z,2.10
2023-05-12T12:06:54.182Z,5.50
2023-05-12T12:07:54.230Z,3.10
2023-05-12T12:08:54.160Z,3.10
2023-05-12T12:09:54.208Z,3.40
2023-05-12T12:10:54.192Z,2.90
2023-05-12T12:11:54.150Z,4.20
2023-05-12T12:12:54.111Z,2.30
2023-05-12T12:13:54.696Z,3.00
2023-05-12T12:14:54.116Z,3.00
2023-05-12T12:15:54.316Z,3.60
2023-05-12T12:16:54.177Z,2.50
2023-05-12T12:17:54.144Z,2.00
2023-05-12T12:18:54.111Z,3.80
2023-05-12T12:19:54.100Z,3.50
2023-05-12T12:20:54.121Z,5.40
2023-05-12T12:21:54.216Z,2.00
2023-05-12T12:22:54.027Z,3.00
2023-05-12T12:23:55.552Z,4.00
2023-05-12T12:24:53.989Z,1.90
2023-05-12T12:25:54.046Z,3.80
2023-05-12T12:26:53.963Z,4.50
2023-05-12T12:27:54.031Z,5.30
2023-05-12T12:28:53.960Z,3.90
2023-05-12T12:29:53.960Z,4.40
2023-05-12T12:30:53.969Z,3.70
2023-05-12T12:31:53.935Z,5.40
2023-05-12T12:32:53.958Z,2.90
2023-05-12T12:33:53.926Z,2.40
2023-05-12T12:34:53.924Z,1.80
2023-05-12T12:35:53.983Z,2.60
2023-05-12T12:36:53.893Z,3.60
2023-05-12T12:37:53.907Z,4.80
2023-05-12T12:38:53.849Z,2.60
2023-05-12T12:39:53.883Z,5.20
2023-05-12T12:40:53.825Z,4.40
2023-05-12T12:41:53.822Z,2.50
2023-05-12T12:42:53.788Z,2.80
2023-05-12T12:43:53.828Z,4.00
2023-05-12T12:44:53.777Z,3.30
2023-05-12T12:45:53.902Z,4.00
2023-05-12T12:46:53.805Z,3.70
2023-05-12T12:47:53.791Z,1.80
2023-05-12T12:48:53.748Z,3.40
2023-05-12T12:49:53.781Z,2.70
2023-05-12T12:50:54.082Z,3.50
2023-05-12T12:51:53.724Z,3.40
2023-05-12T12:52:53.826Z,3.20
2023-05-12T12:53:53.752Z,2.10
2023-05-12T12:54:54.339Z,2.50
2023-05-12T12:55:53.754Z,3.70
2023-05-12T12:56:53.760Z,3.60
2023-05-12T12:57:53.713Z,5.10
2023-05-12T12:58:53.610Z,3.60
2023-05-12T12:59:53.758Z,3.90
2023-05-12T13:00:53.602Z,2.90
2023-05-12T13:01:53.660Z,6.80
2023-05-12T13:02:53.734Z,2.50
2023-05-12T13:03:53.651Z,3.30
2023-05-12T13:04:53.555Z,3.00
2023-05-12T13:05:53.605Z,3.80
2023-05-12T13:06:53.523Z,3.90
2023-05-12T13:07:53.568Z,2.40
2023-05-12T13:08:53.500Z,4.00
2023-05-12T13:09:53.578Z,3.00
2023-05-12T13:10:53.510Z,4.20
2023-05-12T13:11:53.601Z,4.20
2023-05-12T13:12:53.441Z,4.00
2023-05-12T13:13:53.484Z,3.70
2023-05-12T13:14:53.615Z,4.50
2023-05-12T13:15:53.566Z,2.60
2023-05-12T13:16:53.477Z,4.70
2023-05-12T13:17:53.440Z,4.00